createdAt,value
2023-04-08T00:02:23.255Z,8.80
2023-04-08T00:04:51.534Z,8.77
2023-04-08T00:07:20.420Z,8.43
2023-04-08T00:09:50.628Z,8.40
2023-04-08T00:12:18.915Z,9.32
2023-04-08T00:14:46.871Z,10.23
2023-04-08T00:17:15.203Z,9.07
2023-04-08T00:19:43.726Z,10.68
2023-04-08T00:22:12.269Z,10.18
2023-04-08T00:24:41.818Z,9.77
2023-04-08T00:27:09.850Z,10.00
2023-04-08T00:29:40.700Z,8.05
2023-04-08T00:32:09.133Z,8.23
2023-04-08T00:34:37.773Z,8.70
2023-04-08T00:37:06.828Z,8.85
2023-04-08T00:39:35.012Z,9.65
2023-04-08T00:42:03.394Z,8.88
2023-04-08T00:44:31.375Z,9.45
2023-04-08T00:46:59.830Z,10.25
2023-04-08T00:49:28.309Z,10.57
2023-04-08T00:51:56.388Z,12.48
2023-04-08T00:54:25.297Z,11.25
2023-04-08T00:56:53.346Z,12.63
2023-04-08T00:59:21.475Z,12.98
2023-04-08T01:02:23.507Z,14.13
2023-04-08T01:07:50.624Z,12.90
2023-04-08T01:10:33.927Z,11.75
2023-04-08T01:13:10.661Z,13.32
2023-04-08T01:15:43.725Z,11.88
2023-04-08T01:18:15.917Z,13.63
2023-04-08T01:23:49.796Z,13.73
2023-04-08T01:26:25.785Z,13.80
2023-04-08T01:28:58.569Z,14.95
2023-04-08T01:31:27.847Z,12.63
2023-04-08T01:33:58.009Z,15.63
2023-04-08T01:36:26.689Z,12.77
2023-04-08T01:38:54.967Z,13.27
2023-04-08T01:41:23.340Z,14.02
2023-04-08T01:43:54.552Z,14.60
2023-04-08T01:46:23.085Z,12.80
2023-04-08T01:48:51.972Z,13.82
2023-04-08T01:51:21.509Z,14.45
2023-04-08T01:53:50.556Z,15.50
2023-04-08T01:56:23.373Z,13.05
2023-04-08T01:58:54.709Z,15.45
2023-04-08T02:01:26.375Z,13.43
2023-04-08T02:06:29.442Z,14.25
2023-04-08T02:11:26.194Z,12.30
2023-04-08T02:13:54.931Z,14.57
2023-04-08T02:16:58.833Z,13.38
2023-04-08T02:19:36.686Z,13.82
2023-04-08T02:22:23.585Z,13.48
2023-04-08T02:24:52.693Z,15.93
2023-04-08T02:27:22.957Z,16.20
2023-04-08T02:29:54.002Z,15.68
2023-04-08T02:32:26.447Z,14.27
2023-04-08T02:34:56.853Z,13.82
2023-04-08T02:37:25.433Z,13.30
2023-04-08T02:39:53.557Z,15.27
2023-04-08T02:42:21.839Z,14.63
2023-04-08T02:44:50.046Z,16.52
2023-04-08T02:47:17.991Z,14.18
2023-04-08T02:49:46.565Z,16.25
2023-04-08T02:52:14.863Z,14.40
2023-04-08T02:54:42.922Z,14.63
2023-04-08T02:57:11.041Z,15.27
2023-04-08T02:59:39.210Z,14.55
2023-04-08T03:02:07.199Z,15.23
2023-04-08T03:04:36.578Z,14.63
2023-04-08T03:07:05.692Z,14.57
2023-04-08T03:09:34.756Z,15.02
2023-04-08T03:12:03.101Z,14.38
2023-04-08T03:14:31.107Z,14.07
2023-04-08T03:16:59.318Z,13.10
2023-04-08T03:19:29.201Z,13.27
2023-04-08T03:21:57.872Z,14.80
2023-04-08T03:24:25.859Z,14.70
2023-04-08T03:26:54.102Z,15.95
2023-04-08T03:29:22.238Z,14.98
2023-04-08T03:31:50.476Z,16.20
2023-04-08T03:34:19.915Z,14.60
2023-04-08T03:36:47.851Z,16.48
2023-04-08T03:39:15.837Z,15.75
2023-04-08T03:41:44.221Z,19.38
2023-04-08T03:44:12.325Z,16.70
2023-04-08T03:46:40.683Z,15.63
2023-04-08T03:49:08.828Z,15.48
2023-04-08T03:51:36.831Z,14.85
2023-04-08T03:54:04.973Z,14.35
2023-04-08T03:56:33.184Z,15.20
2023-04-08T03:59:01.278Z,14.05
2023-04-08T04:01:30.466Z,15.10
2023-04-08T04:04:00.347Z,12.93
2023-04-08T04:06:28.592Z,13.02
2023-04-08T04:08:56.516Z,15.85
2023-04-08T04:11:24.630Z,15.38
2023-04-08T04:13:52.702Z,15.10
2023-04-08T04:16:21.253Z,13.40
2023-04-08T04:18:50.148Z,15.20
2023-04-08T04:21:18.666Z,13.15
2023-04-08T04:23:46.981Z,14.15
2023-04-08T04:26:15.788Z,12.57
2023-04-08T04:28:43.933Z,13.15
2023-04-08T04:31:26.736Z,12.95
2023-04-08T04:33:55.684Z,13.60
2023-04-08T04:36:23.760Z,12.25
2023-04-08T04:38:52.272Z,14.23
2023-04-08T04:41:24.050Z,13.40
2023-04-08T04:43:52.143Z,15.05
2023-04-08T04:46:20.869Z,12.48
2023-04-08T04:48:49.454Z,14.60
2023-04-08T04:51:17.809Z,11.23
2023-04-08T04:53:45.961Z,15.20
2023-04-08T04:56:14.102Z,11.30
2023-04-08T04:58:42.495Z,13.25
2023-04-08T05:01:10.865Z,12.13
2023-04-08T05:03:39.204Z,12.85
2023-04-08T05:06:07.265Z,13.52
2023-04-08T05:08:35.573Z,11.52
2023-04-08T05:11:03.849Z,12.25
2023-04-08T05:13:33.503Z,13.38
2023-04-08T05:16:02.219Z,13.05
2023-04-08T05:18:30.531Z,12.32
2023-04-08T05:21:00.039Z,12.63
2023-04-08T05:23:28.510Z,12.25
2023-04-08T05:25:57.156Z,12.45
2023-04-08T05:28:25.620Z,10.95
2023-04-08T05:30:54.941Z,13.63
2023-04-08T05:33:23.407Z,11.40
2023-04-08T05:35:51.430Z,12.82
2023-04-08T05:38:20.000Z,11.48
2023-04-08T05:40:48.493Z,13.15
2023-04-08T05:43:16.609Z,11.98
2023-04-08T05:45:44.810Z,12.02
2023-04-08T05:48:13.023Z,11.20
2023-04-08T05:50:41.177Z,11.82
2023-04-08T05:53:11.116Z,11.25
2023-04-08T05:55:40.255Z,12.50
2023-04-08T05:58:08.315Z,10.82
2023-04-08T06:00:36.720Z,11.55
2023-04-08T06:03:05.237Z,11.98
2023-04-08T06:05:33.611Z,11.55
2023-04-08T06:08:01.957Z,11.85
2023-04-08T06:10:30.275Z,12.40
2023-04-08T06:12:58.468Z,11.15
2023-04-08T06:15:27.340Z,11.00
2023-04-08T06:17:55.669Z,13.18
2023-04-08T06:20:23.902Z,11.48
2023-04-08T06:22:52.434Z,13.10
2023-04-08T06:25:20.884Z,11.45
2023-04-08T06:27:48.954Z,13.13
2023-04-08T06:30:17.681Z,11.25
2023-04-08T06:32:47.577Z,11.95
2023-04-08T06:35:16.328Z,11.90
2023-04-08T06:37:44.711Z,12.43
2023-04-08T06:40:13.464Z,10.27
2023-04-08T06:42:43.448Z,10.80
2023-04-08T06:45:29.933Z,9.30
2023-04-08T06:47:58.011Z,9.52
2023-04-08T06:50:26.154Z,8.95
2023-04-08T06:52:55.714Z,8.85
2023-04-08T06:55:23.703Z,8.55
2023-04-08T06:57:52.115Z,8.52
2023-04-08T07:00:20.917Z,8.50
2023-04-08T07:02:49.845Z,9.00
2023-04-08T07:05:17.998Z,8.57
2023-04-08T07:07:46.548Z,8.68
2023-04-08T07:10:14.737Z,8.05
2023-04-08T07:12:43.080Z,8.02
2023-04-08T07:15:13.123Z,7.75
2023-04-08T07:17:41.592Z,8.02
2023-04-08T07:20:10.826Z,7.85
2023-04-08T07:22:39.027Z,8.15
2023-04-08T07:25:07.605Z,7.75
2023-04-08T07:27:36.836Z,8.35
2023-04-08T07:30:06.235Z,8.05
2023-04-08T07:32:35.062Z,7.32
2023-04-08T07:35:03.987Z,8.75
2023-04-08T07:37:33.210Z,8.02
2023-04-08T07:40:01.373Z,7.85
2023-04-08T07:42:29.693Z,7.70
2023-04-08T07:44:58.727Z,8.40
2023-04-08T07:47:27.413Z,7.70
2023-04-08T07:49:55.740Z,7.53
2023-04-08T07:52:24.714Z,8.60
2023-04-08T07:54:52.848Z,8.40
2023-04-08T07:57:21.438Z,7.72
2023-04-08T07:59:49.931Z,9.15
2023-04-08T08:02:18.253Z,7.50
2023-04-08T08:04:46.943Z,7.60
2023-04-08T08:07:18.206Z,8.80
2023-04-08T08:09:46.220Z,8.00
2023-04-08T08:12:14.336Z,7.53
2023-04-08T08:14:42.846Z,7.90
2023-04-08T08:17:11.096Z,7.30
2023-04-08T08:19:39.182Z,8.60
2023-04-08T08:22:07.592Z,7.30
2023-04-08T08:24:35.717Z,7.93
2023-04-08T08:27:06.168Z,8.98
2023-04-08T08:29:34.726Z,8.80
2023-04-08T08:32:03.894Z,6.60
2023-04-08T08:34:32.226Z,7.65
2023-04-08T08:37:00.675Z,7.13
2023-04-08T08:39:28.706Z,6.93
2023-04-08T08:41:57.159Z,7.72
2023-04-08T08:44:26.024Z,7.25
2023-04-08T08:46:54.352Z,7.47
2023-04-08T08:49:24.073Z,6.88
2023-04-08T08:51:55.311Z,7.68
2023-04-08T08:54:23.371Z,7.07
2023-04-08T08:56:51.562Z,6.82
2023-04-08T08:59:20.028Z,7.25
2023-04-08T09:01:48.161Z,6.60
2023-04-08T09:04:20.118Z,6.72
2023-04-08T09:07:10.332Z,6.57
2023-04-08T09:09:58.916Z,6.45
2023-04-08T09:12:31.678Z,6.88
2023-04-08T09:15:08.514Z,7.50
2023-04-08T09:17:41.713Z,6.38
2023-04-08T09:20:15.364Z,5.60
2023-04-08T09:23:03.421Z,6.80
2023-04-08T09:25:33.670Z,9.85
2023-04-08T09:28:03.077Z,10.32
2023-04-08T09:30:33.185Z,11.18
2023-04-08T09:33:01.885Z,7.15
2023-04-08T09:35:30.119Z,6.53
2023-04-08T09:38:00.499Z,7.05
2023-04-08T09:40:35.071Z,6.67
2023-04-08T09:43:08.467Z,5.85
2023-04-08T09:45:41.388Z,8.57
2023-04-08T09:48:25.048Z,8.38
2023-04-08T09:50:57.589Z,6.28
2023-04-08T09:53:34.942Z,6.22
2023-04-08T09:56:10.677Z,7.60
2023-04-08T09:59:04.874Z,6.40
2023-04-08T10:01:40.894Z,5.72
2023-04-08T10:04:15.518Z,5.38
2023-04-08T10:06:43.921Z,5.40
2023-04-08T10:09:12.951Z,5.20
2023-04-08T10:11:41.672Z,8.13
2023-04-08T10:14:11.624Z,6.10
2023-04-08T10:16:40.626Z,6.43
2023-04-08T10:19:41.914Z,5.32
2023-04-08T10:22:49.425Z,5.28
2023-04-08T10:25:17.783Z,5.50
2023-04-08T10:27:46.628Z,6.13
2023-04-08T10:30:32.099Z,6.15
2023-04-08T10:33:01.199Z,6.18
2023-04-08T10:35:35.658Z,6.20
2023-04-08T10:38:04.318Z,5.70
2023-04-08T10:40:42.918Z,6.07
2023-04-08T10:43:12.895Z,5.50
2023-04-08T10:45:42.671Z,5.63
2023-04-08T10:48:14.381Z,4.97
2023-04-08T10:53:11.571Z,4.57
2023-04-08T10:55:40.471Z,5.43
2023-04-08T10:58:10.704Z,4.88
2023-04-08T11:00:41.173Z,4.88
2023-04-08T11:03:14.390Z,4.80
2023-04-08T11:05:44.034Z,5.05
2023-04-08T11:08:12.149Z,4.88
2023-04-08T11:10:40.635Z,4.78
2023-04-08T11:13:12.974Z,4.97
2023-04-08T11:15:43.011Z,4.53
2023-04-08T11:18:12.263Z,4.78
2023-04-08T11:20:40.670Z,4.53
2023-04-08T11:23:15.713Z,4.82
2023-04-08T11:25:47.126Z,4.43
2023-04-08T11:28:15.856Z,4.93
2023-04-08T11:30:45.106Z,4.95
2023-04-08T11:33:14.549Z,4.53
2023-04-08T11:35:44.433Z,4.65
2023-04-08T11:38:13.141Z,4.50
2023-04-08T11:40:53.036Z,4.55
2023-04-08T11:43:21.714Z,4.18
2023-04-08T11:45:50.492Z,4.60
2023-04-08T11:48:18.813Z,4.25
2023-04-08T11:50:47.124Z,4.15
2023-04-08T11:53:41.554Z,4.20
2023-04-08T11:56:24.373Z,4.32
2023-04-08T11:58:53.556Z,4.40
2023-04-08T12:01:22.138Z,4.45
2023-04-08T12:03:58.844Z,4.57
2023-04-08T12:06:29.068Z,4.68
2023-04-08T12:08:58.279Z,4.53
2023-04-08T12:11:26.565Z,3.72
2023-04-08T12:13:55.068Z,4.43
2023-04-08T12:16:23.469Z,4.32
2023-04-08T12:18:52.098Z,4.25
2023-04-08T12:21:20.450Z,4.30
2023-04-08T12:23:49.128Z,4.32
2023-04-08T12:26:18.333Z,4.22
2023-04-08T12:28:47.332Z,4.80
2023-04-08T12:31:15.740Z,4.07
2023-04-08T12:33:44.205Z,4.10
2023-04-08T12:36:13.708Z,3.92
2023-04-08T12:38:42.297Z,4.30
2023-04-08T12:41:10.774Z,4.80
2023-04-08T12:43:39.558Z,3.80
2023-04-08T12:46:08.066Z,4.80
2023-04-08T12:48:37.125Z,4.07
2023-04-08T12:51:06.631Z,4.05
2023-04-08T12:53:34.933Z,4.65
2023-04-08T12:56:03.612Z,3.88
2023-04-08T12:58:32.090Z,4.15
2023-04-08T13:01:00.956Z,4.30
2023-04-08T13:03:32.612Z,3.97
2023-04-08T13:06:01.505Z,3.85
2023-04-08T13:08:30.070Z,4.25
2023-04-08T13:10:58.545Z,4.28
2023-04-08T13:13:27.033Z,3.65
2023-04-08T13:15:55.454Z,4.60
2023-04-08T13:18:23.842Z,4.10
2023-04-08T13:20:52.347Z,4.05
2023-04-08T13:23:22.585Z,4.15
2023-04-08T13:25:51.887Z,4.25
2023-04-08T13:28:20.643Z,3.55
2023-04-08T13:30:49.125Z,3.30
2023-04-08T13:33:17.956Z,3.70
2023-04-08T13:35:46.900Z,3.92
2023-04-08T13:38:15.689Z,3.72
2023-04-08T13:40:46.634Z,3.90
2023-04-08T13:43:16.283Z,3.97
2023-04-08T13:45:44.856Z,4.03
2023-04-08T13:48:13.932Z,4.05
2023-04-08T13:50:42.782Z,4.22
2023-04-08T13:53:11.101Z,3.92
2023-04-08T13:55:39.333Z,4.15
2023-04-08T13:58:17.264Z,3.83
2023-04-08T14:00:52.304Z,3.55
2023-04-08T14:03:20.938Z,4.25
2023-04-08T14:05:51.171Z,4.30
2023-04-08T14:08:25.935Z,3.58
2023-04-08T14:10:57.997Z,3.90
2023-04-08T14:13:27.078Z,3.30
2023-04-08T14:15:58.493Z,3.80
2023-04-08T14:20:56.458Z,3.35
2023-04-08T14:23:24.913Z,3.53
2023-04-08T14:25:53.335Z,3.58
2023-04-08T14:28:21.749Z,3.70
2023-04-08T14:30:50.253Z,4.10
2023-04-08T14:33:19.402Z,3.47
2023-04-08T14:35:48.081Z,3.78
2023-04-08T14:38:18.100Z,3.72
2023-04-08T14:40:46.563Z,3.70
2023-04-08T14:43:14.924Z,3.83
2023-04-08T14:45:46.196Z,3.90
2023-04-08T14:48:14.504Z,3.80
2023-04-08T14:50:43.161Z,3.75
2023-04-08T14:53:11.960Z,3.92
2023-04-08T14:55:40.207Z,3.90
2023-04-08T14:58:08.449Z,3.50
2023-04-08T15:00:37.930Z,4.25
2023-04-08T15:03:06.964Z,3.80
2023-04-08T15:05:36.757Z,4.53
2023-04-08T15:08:06.456Z,4.10
2023-04-08T15:10:34.700Z,3.50
2023-04-08T15:13:04.058Z,4.07
2023-04-08T15:15:32.473Z,3.92
2023-04-08T15:18:00.874Z,3.67
2023-04-08T15:20:29.482Z,4.20
2023-04-08T15:22:58.337Z,3.92
2023-04-08T15:25:26.361Z,4.32
2023-04-08T15:27:54.780Z,3.65
2023-04-08T15:30:24.669Z,3.70
2023-04-08T15:32:54.068Z,4.00
2023-04-08T15:35:23.443Z,3.15
2023-04-08T15:37:51.916Z,3.67
2023-04-08T15:40:20.180Z,3.85
2023-04-08T15:42:48.484Z,3.63
2023-04-08T15:45:17.229Z,4.22
2023-04-08T15:47:45.578Z,3.55
2023-04-08T15:50:15.368Z,3.65
2023-04-08T15:52:44.106Z,3.90
2023-04-08T15:55:14.890Z,4.03
2023-04-08T15:57:44.402Z,3.53
2023-04-08T16:00:14.950Z,3.90
2023-04-08T16:02:46.894Z,3.80
2023-04-08T16:05:15.993Z,3.55
2023-04-08T16:07:44.019Z,3.70
2023-04-08T16:10:12.287Z,4.22
2023-04-08T16:12:41.204Z,4.05
2023-04-08T16:15:10.075Z,4.25
2023-04-08T16:17:39.184Z,4.10
2023-04-08T16:20:07.976Z,4.00
2023-04-08T16:22:37.113Z,4.78
2023-04-08T16:25:06.046Z,3.97
2023-04-08T16:27:34.249Z,4.03
2023-04-08T16:30:04.268Z,3.90
2023-04-08T16:32:32.805Z,3.72
2023-04-08T16:35:01.114Z,3.10
2023-04-08T16:37:29.529Z,3.10
2023-04-08T16:39:58.476Z,3.25
2023-04-08T16:42:26.900Z,3.50
2023-04-08T16:45:00.012Z,3.75
2023-04-08T16:47:28.942Z,2.85
2023-04-08T16:49:57.638Z,3.30
2023-04-08T16:52:27.066Z,3.45
2023-04-08T16:54:55.379Z,3.35
2023-04-08T16:57:24.244Z,3.53
2023-04-08T16:59:53.754Z,4.05
2023-04-08T17:02:22.653Z,3.85
2023-04-08T17:04:51.736Z,4.30
2023-04-08T17:07:21.655Z,4.05
2023-04-08T17:09:54.690Z,3.97
2023-04-08T17:12:23.763Z,4.50
2023-04-08T17:14:52.193Z,4.03
2023-04-08T17:17:20.526Z,4.57
2023-04-08T17:19:49.703Z,4.47
2023-04-08T17:22:18.025Z,4.45
2023-04-08T17:24:48.107Z,4.55
2023-04-08T17:27:17.902Z,5.00
2023-04-08T17:29:46.456Z,5.55
2023-04-08T17:32:14.776Z,5.28
2023-04-08T17:34:43.912Z,4.97
2023-04-08T17:37:12.468Z,5.10
2023-04-08T17:39:41.336Z,4.85
2023-04-08T17:42:10.139Z,5.10
2023-04-08T17:44:42.283Z,5.68
2023-04-08T17:47:14.580Z,5.18
2023-04-08T17:49:44.154Z,5.82
2023-04-08T17:52:13.409Z,5.55
2023-04-08T17:54:42.057Z,6.00
2023-04-08T17:57:10.424Z,6.18
2023-04-08T17:59:38.632Z,5.50
2023-04-08T18:02:07.642Z,4.88
2023-04-08T18:04:36.673Z,5.18
2023-04-08T18:07:05.623Z,5.32
2023-04-08T18:09:34.358Z,5.88
2023-04-08T18:12:02.517Z,16.83
2023-04-08T18:14:31.093Z,18.73
2023-04-08T18:16:59.854Z,15.82
2023-04-08T18:19:28.557Z,11.95
2023-04-08T18:21:58.002Z,10.48
2023-04-08T18:24:26.510Z,8.10
2023-04-08T18:27:04.073Z,7.93
2023-04-08T18:29:33.666Z,6.85
2023-04-08T18:32:02.877Z,6.97
2023-04-08T18:34:32.390Z,26.50
2023-04-08T18:37:01.462Z,33.58
2023-04-08T18:39:31.220Z,15.50
2023-04-08T18:41:59.742Z,12.77
2023-04-08T18:44:28.936Z,13.15
2023-04-08T18:46:57.572Z,12.48
2023-04-08T18:49:26.765Z,11.30
2023-04-08T18:52:02.550Z,11.18
2023-04-08T18:54:32.500Z,11.90
2023-04-08T18:57:01.998Z,12.05
2023-04-08T18:59:30.777Z,12.90
2023-04-08T19:02:00.009Z,11.77
2023-04-08T19:04:29.983Z,10.10
2023-04-08T19:06:58.775Z,10.70
2023-04-08T19:09:27.274Z,11.32
2023-04-08T19:11:56.787Z,11.68
2023-04-08T19:14:25.773Z,10.57
2023-04-08T19:16:54.132Z,9.93
2023-04-08T19:19:23.618Z,10.55
2023-04-08T19:21:53.858Z,8.82
2023-04-08T19:24:22.349Z,9.00
2023-04-08T19:26:53.519Z,8.65
2023-04-08T19:29:23.651Z,8.25
2023-04-08T19:31:52.998Z,7.95
2023-04-08T19:34:21.617Z,7.95
2023-04-08T19:36:50.373Z,7.85
2023-04-08T19:39:19.510Z,8.10
2023-04-08T19:41:48.436Z,8.85
2023-04-08T19:44:17.028Z,8.25
2023-04-08T19:46:45.602Z,8.35
2023-04-08T19:49:14.160Z,9.00
2023-04-08T19:51:42.385Z,12.27
2023-04-08T19:54:10.849Z,17.85
2023-04-08T19:56:39.836Z,29.55
2023-04-08T19:59:08.314Z,27.73
2023-04-08T20:01:38.380Z,25.10
2023-04-08T20:04:07.498Z,28.00
2023-04-08T20:06:37.030Z,21.90
2023-04-08T20:09:05.895Z,29.65
2023-04-08T20:11:34.803Z,22.60
2023-04-08T20:14:05.008Z,23.08
2023-04-08T20:16:34.944Z,28.73
2023-04-08T20:19:03.991Z,25.73
2023-04-08T20:21:32.818Z,27.27
2023-04-08T20:24:01.960Z,30.77
2023-04-08T20:26:31.359Z,47.25
2023-04-08T20:29:00.534Z,55.25
2023-04-08T20:31:29.630Z,46.60
2023-04-08T20:33:59.371Z,41.80
2023-04-08T20:36:28.547Z,33.25
2023-04-08T20:38:57.588Z,31.40
2023-04-08T20:41:27.501Z,32.95
2023-04-08T20:43:56.298Z,27.17
2023-04-08T20:46:25.383Z,23.75
2023-04-08T20:48:54.656Z,24.50
2023-04-08T20:51:23.626Z,19.73
2023-04-08T20:53:52.189Z,21.60
2023-04-08T20:56:23.807Z,19.85
2023-04-08T20:58:52.885Z,18.42
2023-04-08T21:01:22.200Z,19.30
2023-04-08T21:03:51.101Z,19.08
2023-04-08T21:06:23.604Z,19.58
2023-04-08T21:08:52.368Z,19.00
2023-04-08T21:11:21.268Z,18.08
2023-04-08T21:13:51.132Z,17.73
2023-04-08T21:16:19.431Z,17.67
2023-04-08T21:18:47.631Z,17.48
2023-04-08T21:21:15.956Z,18.05
2023-04-08T21:24:00.923Z,16.92
2023-04-08T21:26:31.507Z,16.35
2023-04-08T21:28:59.761Z,13.95
2023-04-08T21:31:28.222Z,15.32
2023-04-08T21:33:56.898Z,14.68
2023-04-08T21:36:24.990Z,14.10
2023-04-08T21:38:53.429Z,13.80
2023-04-08T21:41:24.523Z,14.95
2023-04-08T21:43:53.948Z,14.85
2023-04-08T21:46:22.180Z,14.50
2023-04-08T21:48:50.615Z,15.18
2023-04-08T21:51:19.611Z,15.73
2023-04-08T21:53:47.753Z,16.83
2023-04-08T21:56:15.935Z,17.50
2023-04-08T21:58:44.361Z,16.05
2023-04-08T22:01:13.128Z,18.63
2023-04-08T22:03:42.048Z,17.92
2023-04-08T22:06:12.669Z,19.05
2023-04-08T22:08:45.350Z,20.90
2023-04-08T22:11:13.784Z,21.67
2023-04-08T22:13:41.916Z,21.75
2023-04-08T22:16:11.319Z,21.80
2023-04-08T22:18:39.800Z,21.25
2023-04-08T22:21:07.927Z,19.90
2023-04-08T22:23:35.888Z,20.30
2023-04-08T22:26:04.454Z,20.67
2023-04-08T22:28:34.950Z,20.50
2023-04-08T22:31:03.367Z,19.58
2023-04-08T22:33:31.730Z,19.95
2023-04-08T22:35:59.888Z,20.02
2023-04-08T22:38:28.147Z,19.88
2023-04-08T22:40:56.537Z,19.98
2023-04-08T22:43:24.787Z,20.30
2023-04-08T22:45:53.044Z,20.42
2023-04-08T22:48:22.656Z,19.80
2023-04-08T22:50:51.554Z,17.60
2023-04-08T22:53:19.794Z,17.38
2023-04-08T22:55:50.700Z,17.20
2023-04-08T22:58:18.604Z,18.58
2023-04-08T23:00:46.492Z,19.23
2023-04-08T23:03:15.030Z,19.85
2023-04-08T23:05:42.944Z,20.60
2023-04-08T23:08:10.856Z,20.75
2023-04-08T23:10:38.993Z,17.42
2023-04-08T23:13:07.015Z,20.05
2023-04-08T23:15:34.958Z,17.45
2023-04-08T23:18:03.030Z,17.48
2023-04-08T23:20:31.473Z,17.55
2023-04-08T23:22:59.405Z,18.30
2023-04-08T23:25:27.484Z,20.00
2023-04-08T23:27:55.760Z,20.08
2023-04-08T23:30:23.846Z,18.75
2023-04-08T23:32:52.052Z,19.05
2023-04-08T23:35:20.436Z,18.52
2023-04-08T23:37:48.242Z,18.40
2023-04-08T23:40:16.568Z,19.73
2023-04-08T23:42:44.377Z,18.73
2023-04-08T23:45:12.465Z,18.73
2023-04-08T23:47:40.913Z,20.27
2023-04-08T23:50:09.514Z,18.77
2023-04-08T23:52:37.963Z,17.45
2023-04-08T23:55:07.175Z,18.73
2023-04-08T23:57:35.059Z,17.45
